Tiempo atmosférico en la estación meteorológica de Coll De Nargó, Lleida (603 m.)



Fecha
DESCASC
Temp. máxima en grados centígrados (hora)
DESCASC
Temp. mínima en grados centígrados (hora)
DESCASC
Temp. media en grados centígrados
DESCASC
Racha de viento máxima en m/sg (hora)
DESCASC
Velocidad máxima media en intervalos de 10 minutos(hora)
DESCASC
Precipitaciones diarias en mm
DESCASC
Precipitaciones de 00:00 a 06:00 en mm
DESCASC
Precipitaciones de 06:00 a 12:00 en mm
DESCASC
Precipitaciones de 12:00 a 18:00 en mm
DESCASC
Precipitaciones de 18:00 a 24:00 en mm
DESCASC
18-01-2018 10 (13:40) -3 (08:10) 3.5 11.11 (15:20) 8.89 (15:50) 0 0 0 0 0
17-01-2018 15.1 (15:00) -1.1 (09:30) 7 10.83 (14:10) 8.61 (18:10) 0 0 0 0 0
16-01-2018 10.3 (16:30) -2.5 (06:40) 3.9 12.5 (16:10) 9.17 (15:00) 0.2 0 0 0.2 0
15-01-2018 8.5 (12:20) -2.1 (09:30) 3.2 14.72 (15:00) 12.22 (15:20) 0.2 0 0.2 0 0
14-01-2018 7.5 (14:10) 0.9 (00:00) 4.2 8.61 (16:40) 6.67 (16:40) 1.4 0.8 0.6 0 0
13-01-2018 6.9 (15:10) -3.6 (-00:0) 1.7 3.61 (16:30) 1.94 (09:40) 0.4 0 0 0 0.4
12-01-2018 6.4 (11:20) -3.1 (-00:0) 1.7 14.44 (12:50) 11.94 (12:50) 0 0 0 0 0
11-01-2018 10.6 (15:00) -0.3 (00:00) 5.2 11.11 (16:40) 7.22 (15:30) 0.6 0.4 0.2 0 0
10-01-2018 10.5 (13:40) -1.6 (-00:0) 4.4 12.5 (15:40) 10.28 (15:40) 0 0 0 0 0
09-01-2018 6.8 (12:40) -0.3 (00:00) 3.3 5.28 (09:30) 3.33 (13:00) 0 0 0 0 0
08-01-2018 8.3 (15:20) -0.6 (-00:0) 3.9 6.11 (18:30) 3.89 (18:10) 0.2 0.2 0 0 0
07-01-2018 9 (01:50) 1.7 (00:00) 5.4 17.5 (04:30) 10.28 (04:30) 36.6 8 13.6 13.2 1.8
06-01-2018 12 (22:50) 0.3 (00:00) 6.2 18.61 (23:59) 9.17 (23:20) 5.8 0 0 0 5.8
05-01-2018 15 (13:50) 0.4 (00:00) 7.7 8.61 (14:30) 5.28 (14:50) 0 0 0 0 0
04-01-2018 17.2 (15:30) 2.3 (05:20) 9.8 9.72 (12:50) 5.83 (12:50) 0.2 0 0.2 0 0
03-01-2018 13.3 (15:40) -0.4 (00:00) 6.5 7.22 (14:10) 6.11 (14:10) 0.2 0.2 0 0 0
02-01-2018 13.2 (14:40) -1.9 (-00:0) 5.6 9.72 (15:10) 6.11 (15:20) 0.2 0.2 0 0 0
01-01-2018 12 (13:20) 0 (00:00) 6 11.67 (02:30) 7.22 (02:40) 1.8 0 0 0 1.8
31-12-2017 11.1 (14:20) -1.5 (-00:0) 4.8 8.06 (16:10) 4.17 (15:40) 0.2 0 0.2 0 0
30-12-2017 14.1 (15:30) -2.1 (-00:0) 6 5.56 (14:50) 2.78 (15:40) 0 0 0 0 0
29-12-2017 8.9 (15:10) -3.6 (-00:0) 2.6 4.72 (16:40) 3.06 (16:40) 0.4 0 0.2 0.2 0
28-12-2017 7.5 (14:00) -4.6 (-00:0) 1.5 7.22 (15:40) 5.56 (15:40) 0 0 0 0 0
27-12-2017 9.8 (14:20) -1.7 (-00:0) 4.1 12.5 (18:50) 7.5 (18:40) 6.2 2.6 2.2 1.4 0
26-12-2017 4.4 (12:20) -0.6 (-00:0) 1.9 13.33 (16:10) 10.83 (16:20) 0 0 0 0 0
25-12-2017 12 (14:30) -3.8 (-00:0) 4.1 10.83 (14:40) 7.5 (14:40) 0.2 0 0.2 0 0
24-12-2017 10.5 (13:10) -2.2 (-00:0) 4.1 11.11 (15:50) 8.33 (16:10) 0.2 0 0.2 0 0

Gráficas

Temp. máximas Temp. mínimas Temp. medias Precipitaciones Rachas de viento máximas Velocidades máximas media en intervalos de 10 minutos

Datos horarios

Fecha y hora oficial Temperatura (ºC) Velocidad del viento (km/h) Dirección del viento Racha (km/h) Dirección de racha Precipitación (mm) Presión (hPa) Tendencia (hPa) Humedad (%)
2018-01-22 23:00:00 4.1 4 Sudoeste 12 Sur 0 -- -- 100
2018-01-22 22:00:00 4.4 6 Sur 13 Sudoeste 0 -- -- 97
2018-01-22 21:00:00 4.8 4 Norte 10 Norte 0 -- -- 97
2018-01-22 20:00:00 5.9 3 Norte 9 Norte 0 -- -- 96
2018-01-22 19:00:00 7 3 Norte 8 Norte 0 -- -- 90
2018-01-22 18:00:00 9.5 3 Norte 22 Sur 0 -- -- 83
2018-01-22 17:00:00 10.8 15 Sudeste 31 Sur 0 -- -- 79
2018-01-22 16:00:00 11.7 26 Sur 45 Sur 0 -- -- 74
2018-01-22 15:00:00 9.5 33 Sur 45 Sur 0 -- -- 83
2018-01-22 14:00:00 10 29 Sur 42 Sur 0 -- -- 78
2018-01-22 13:00:00 9.5 32 Sur 40 Sur 0 -- -- 78
2018-01-22 12:00:00 8.3 19 Sur 28 Sur 0 -- -- 81
2018-01-22 11:00:00 5 9 Sur 13 Sur 0 -- -- 98
2018-01-22 10:00:00 0.7 2 Norte 4 Nordeste 0 -- -- 100
2018-01-22 09:00:00 1.3 3 Sur 5 Nordeste 0 -- -- 100
2018-01-22 08:00:00 1.1 4 Norte 7 Norte 0 -- -- 100
2018-01-22 07:00:00 1.6 4 Norte 7 Norte 0 -- -- 99
2018-01-22 06:00:00 2.7 0 Calma 5 Nordeste 0 -- -- 96
2018-01-22 05:00:00 2.9 4 Norte 8 Nordeste 0 -- -- 99
2018-01-22 04:00:00 3.7 2 Nordeste 8 Nordeste 0 -- -- 96
2018-01-22 03:00:00 4.5 5 Norte 6 Norte 0 -- -- 94
2018-01-22 02:00:00 6.3 3 Norte 6 Sur 0 -- -- 93
2018-01-22 01:00:00 7.6 10 Sur 31 Sur 0 -- -- 91
2018-01-22 00:00:00 8.8 23 Sur 30 Sur 0 -- -- 87
2018-01-21 23:00:00 11 8 Sur 18 Norte 0 -- -- 69
2018-01-21 22:00:00 14.4 14 Norte 32 Norte 0 -- -- 50
2018-01-21 21:00:00 15.7 24 Norte 49 Norte 0 -- -- 48
2018-01-21 20:00:00 16.2 24 Norte 54 Noroeste 0 -- -- 46
2018-01-21 19:00:00 15 14 Norte 44 Norte 0 -- -- 51
2018-01-21 18:00:00 17.3 31 Norte 64 Norte 0 -- -- 44
2018-01-21 17:00:00 17.1 24 Norte 39 Norte 0 -- -- 47
2018-01-21 16:00:00 17.2 6 Norte 14 Nordeste 0 -- -- 56
2018-01-21 15:00:00 15.1 11 Norte 17 Norte 0 -- -- 66
2018-01-21 14:00:00 10.4 5 Sudeste 12 Norte 0 -- -- 80
2018-01-21 13:00:00 7.1 7 Norte 12 Norte 0 -- -- 89
2018-01-21 12:00:00 4.7 5 Norte 13 Sur 0 -- -- 99
2018-01-21 11:00:00 2.3 4 Norte 10 Oeste 0 -- -- 98
2018-01-21 10:00:00 1.1 2 Oeste 6 Norte 0 -- -- 100
2018-01-21 09:00:00 0.8 3 Norte 8 Nordeste 0 -- -- 100
2018-01-21 08:00:00 0.6 4 Norte 11 Oeste 0 -- -- 100
2018-01-21 07:00:00 1.4 2 Sur 10 Sur 0 -- -- 100
2018-01-21 06:00:00 0.9 6 Sur 10 Sur 0 -- -- 100
2018-01-21 05:00:00 1.2 5 Norte 10 Nordeste 0 -- -- 100
2018-01-21 04:00:00 1.5 0 Calma 9 Sur 0 -- -- 100
2018-01-21 03:00:00 1.7 4 Noroeste 13 Sur 0 -- -- 100
2018-01-21 02:00:00 -- 2 Nordeste 13 Sudeste 0 -- -- --
2018-01-21 01:00:00 2.6 3 Sur 5 Sudeste 0 -- -- 99
2018-01-21 00:00:00 2.9 8 Sur 17 Sur 0 -- -- 97
2018-01-20 23:00:00 3.1 8 Sur 13 Sur 0 -- -- 95
2018-01-20 22:00:00 3.2 3 Noroeste 9 Norte 0 -- -- 94
2018-01-20 21:00:00 3.6 4 Sudeste 10 Norte 0 -- -- 90
2018-01-20 20:00:00 3.9 4 Norte 8 Nordeste 0 -- -- 93
2018-01-20 19:00:00 4.7 0 Calma 14 Sur 0 -- -- 90
2018-01-20 18:00:00 5.6 9 Sur 26 Sur 0 -- -- 85
2018-01-20 17:00:00 6.9 21 Sur 44 Sur 0 -- -- 80
2018-01-20 16:00:00 7.4 36 Sur 48 Sur 0 -- -- 77
2018-01-20 15:00:00 6.6 38 Sur 46 Sur 0 -- -- 79
2018-01-20 14:00:00 6.4 31 Sur 43 Sur 0 -- -- 78
2018-01-20 13:00:00 6.8 30 Sur 41 Sur 0 -- -- 76
2018-01-20 12:00:00 5.2 4 Sur 10 Sur 0 -- -- 94
2018-01-20 11:00:00 -0.6 0 Calma 6 Nordeste 0 -- -- 100
2018-01-20 10:00:00 -1.7 0 Calma 6 Norte 0 -- -- 100
2018-01-20 09:00:00 -1.5 2 Norte 5 Norte 0 -- -- 100
2018-01-20 08:00:00 -1.6 4 Norte 8 Norte 0 -- -- 100
2018-01-20 07:00:00 -2 5 Norte 7 Nordeste 0 -- -- 100
2018-01-20 06:00:00 -2.1 2 Norte 4 Nordeste 0 -- -- 100
2018-01-20 05:00:00 -2.2 3 Nordeste 5 Sur 0 -- -- 100
2018-01-20 04:00:00 -2.4 3 Norte 5 Norte 0 -- -- 100
2018-01-20 03:00:00 -1.9 0 Calma 4 Sur 0 -- -- 100
2018-01-20 02:00:00 -1 0 Calma 3 Sur 0 -- -- 100
2018-01-20 01:00:00 -0.6 0 Calma 8 Sudoeste 0 -- -- 100
2018-01-20 00:00:00 -0.2 2 Norte 6 Sur 0 -- -- 99
2018-01-19 23:00:00 0.5 3 Nordeste 5 Norte 0 -- -- 98
2018-01-19 22:00:00 1.1 2 Norte 9 Sur 0 -- -- 98
2018-01-19 21:00:00 2.2 2 Nordeste 6 Sudoeste 0 -- -- 96
2018-01-19 20:00:00 3.6 3 Sudoeste 18 Sur 0 -- -- 93
2018-01-19 19:00:00 4.9 6 Sur 25 Sur 0 -- -- 88
2018-01-19 18:00:00 6.3 15 Sur 28 Sur 0 -- -- 83
2018-01-19 17:00:00 7.7 19 Sur 36 Sur 0 -- -- 77
2018-01-19 16:00:00 10.3 27 Sur 34 Sur 0 -- -- 65
2018-01-19 15:00:00 11.5 25 Sur 35 Sur 0 -- -- 58
2018-01-19 14:00:00 11.8 9 Sudeste 21 Sur 0 -- -- 54
2018-01-19 13:00:00 10.1 5 Sudeste 14 Sur 0 -- -- 52
2018-01-19 12:00:00 6.3 2 Nordeste 8 Norte 0 -- -- 64
2018-01-19 11:00:00 2.4 2 Noroeste 7 Norte 0.2 -- -- 86
2018-01-19 10:00:00 -1.4 5 Norte 9 Norte 0 -- -- 98
2018-01-19 09:00:00 -2.5 4 Norte 10 Norte 0 -- -- 100
2018-01-19 08:00:00 -2.8 5 Norte 8 Noroeste 0 -- -- 100
2018-01-19 07:00:00 -1.9 3 Noroeste 8 Norte 0 -- -- 100
2018-01-19 06:00:00 -2 3 Norte 7 Nordeste 0 -- -- 98
2018-01-19 05:00:00 -1.4 5 Norte 9 Norte 0 -- -- 100
2018-01-19 04:00:00 -2.3 5 Norte 9 Norte 0 -- -- 100
2018-01-19 03:00:00 -1.7 5 Norte 9 Norte 0 -- -- 100
2018-01-19 02:00:00 -1.8 6 Norte 10 Norte 0 -- -- 100
2018-01-19 01:00:00 -1.2 7 Norte 11 Norte 0 -- -- 100
2018-01-19 00:00:00 -1.3 7 Norte 9 Norte 0 -- -- 100
2018-01-18 23:00:00 -1 7 Norte 9 Norte 0 -- -- 99
2018-01-18 22:00:00 -0.1 6 Norte 8 Norte 0 -- -- 98
2018-01-18 21:00:00 1 5 Norte 6 Norte 0 -- -- 93
2018-01-18 20:00:00 1.7 3 Nordeste 6 Norte 0 -- -- 94
2018-01-18 19:00:00 4.5 2 Sudoeste 35 Sur 0 -- -- 88
2018-01-18 18:00:00 5.7 26 Sur 38 Sur 0 -- -- 83
2018-01-18 17:00:00 6.4 24 Sur 40 Sur 0 -- -- 78
2018-01-18 16:00:00 8.4 31 Sur 40 Sur 0 -- -- 68
2018-01-18 15:00:00 9.5 26 Sur 37 Sur 0 -- -- 61
2018-01-18 14:00:00 9.6 23 Sur 32 Sudeste 0 -- -- 59
2018-01-18 13:00:00 9.4 3 Nordeste 15 Sur 0 -- -- 48
2018-01-18 12:00:00 7 3 Este 8 Sur 0 -- -- 54
2018-01-18 11:00:00 2.8 4 Nordeste 6 Nordeste 0 -- -- 71
2018-01-18 10:00:00 -1.8 0 Calma 6 Norte 0 -- -- 95
2018-01-18 09:00:00 -2.6 4 Norte 10 Noroeste 0 -- -- 95
2018-01-18 08:00:00 -2.9 4 Norte 11 Nordeste 0 -- -- 99
2018-01-18 07:00:00 -2.7 4 Norte 8 Norte 0 -- -- 100
2018-01-18 06:00:00 -2.3 6 Norte 8 Norte 0 -- -- 95
2018-01-18 05:00:00 -1.8 3 Norte 9 Norte 0 -- -- 97
2018-01-18 04:00:00 -1.8 6 Norte 10 Norte 0 -- -- 99
2018-01-18 03:00:00 -2 8 Norte 10 Norte 0 -- -- 100
2018-01-18 02:00:00 -0.9 2 Norte 8 Nordeste 0 -- -- 99
2018-01-18 01:00:00 0.3 0 Calma 8 Norte 0 -- -- 96
2018-01-18 00:00:00 1.5 2 Sur 21 Sur 0 -- -- 89
2018-01-17 23:00:00 2.2 12 Sur 23 Sur 0 -- -- 90
2018-01-17 22:00:00 2.8 2 Nordeste 9 Sur 0 -- -- 81
2018-01-17 21:00:00 4.4 2 Sur 12 Sur 0 -- -- 75
2018-01-17 20:00:00 6 4 Sudoeste 21 Sur 0 -- -- 71
2018-01-17 19:00:00 7.8 23 Sur 38 Sur 0 -- -- 65
2018-01-17 18:00:00 9.2 28 Sur 35 Sur 0 -- -- 63
2018-01-17 17:00:00 11.4 5 Sur 15 Sur 0 -- -- 53
2018-01-17 16:00:00 13.8 4 Sur 23 Sur 0 -- -- 45
2018-01-17 15:00:00 15.1 18 Sur 39 Sur 0 -- -- 50
2018-01-17 14:00:00 14.1 24 Sur 36 Sur 0 -- -- 54
2018-01-17 13:00:00 12 14 Sur 21 Sur 0 -- -- 64
2018-01-17 12:00:00 6 8 Sur 16 Sur 0 -- -- 100
2018-01-17 11:00:00 0.1 2 Noroeste 5 Nordeste 0 -- -- 100
2018-01-17 10:00:00 -1 0 Calma -- -- 0 -- -- 100
2018-01-17 09:00:00 -1 0 Calma -- -- 0 -- -- 100
2018-01-17 08:00:00 -0.8 0 Calma -- -- 0 -- -- 100
2018-01-17 07:00:00 -0.7 2 Norte 10 Norte 0 -- -- 100
2018-01-17 06:00:00 -0.8 5 Norte 13 Norte 0 -- -- 100
2018-01-17 05:00:00 -1 9 Norte 12 Norte 0 -- -- 100
2018-01-17 04:00:00 -0.6 2 Norte 12 Norte 0 -- -- 100
2018-01-17 03:00:00 -0.3 3 Norte 6 Norte 0 -- -- 100
2018-01-17 02:00:00 1 0 Calma 9 Norte 0 -- -- 100
2018-01-17 01:00:00 0.9 5 Norte 7 Norte 0 -- -- 100
2018-01-17 00:00:00 0.1 6 Norte 8 Norte 0 -- -- 100
2018-01-16 23:00:00 1.2 5 Norte 8 Norte 0 -- -- 100
2018-01-16 22:00:00 1.5 3 Norte 9 Norte 0 -- -- 99
2018-01-16 21:00:00 2.4 4 Norte 10 Norte 0 -- -- 97
2018-01-16 20:00:00 3 5 Norte 8 Norte 0 -- -- 96
2018-01-16 19:00:00 4.9 3 Nordeste 7 Nordeste 0 -- -- 90
2018-01-16 18:00:00 6.8 3 Nordeste 23 Sudeste 0 -- -- 84
2018-01-16 17:00:00 8.7 15 Sudeste 45 Sur 0 -- -- 77
2018-01-16 16:00:00 9.8 29 Sur 42 Sur 0 -- -- 71
2018-01-16 15:00:00 9.6 33 Sur 43 Sur 0 -- -- 69
2018-01-16 14:00:00 9.1 30 Sur 40 Sur 0 -- -- 68
2018-01-16 13:00:00 8.5 15 Sur 18 Sur 0.2 -- -- 66
2018-01-16 12:00:00 6.7 3 Nordeste 6 Nordeste 0 -- -- 84
2018-01-16 11:00:00 1.4 3 Norte 6 Norte 0 -- -- 99
2018-01-16 10:00:00 -1.2 0 Calma -- -- 0 -- -- 100
2018-01-16 09:00:00 -2 0 Calma -- -- 0 -- -- 100
2018-01-16 08:00:00 -2.1 0 Calma -- -- 0 -- -- 100
2018-01-16 07:00:00 -2.4 0 Calma -- -- 0 -- -- 100
2018-01-16 06:00:00 -1.7 0 Calma -- -- 0 -- -- 100
2018-01-16 05:00:00 -2.1 0 Calma -- -- 0 -- -- 100
2018-01-16 04:00:00 -2 0 Calma 10 Noroeste 0 -- -- 100
2018-01-16 03:00:00 -1.7 4 Norte 7 Nordeste 0 -- -- 100
2018-01-16 02:00:00 -1.4 3 Norte 8 Norte 0 -- -- 100
2018-01-16 01:00:00 -1 2 Norte 5 Norte 0 -- -- 100
2018-01-16 00:00:00 -0.8 3 Norte 5 Norte 0 -- -- 100
2018-01-15 23:00:00 -0.6 0 Calma 7 Nordeste 0 -- -- 100
2018-01-15 22:00:00 0.5 3 Norte 5 Norte 0 -- -- 100
2018-01-15 21:00:00 1.1 0 Calma 3 Este 0 -- -- 99
2018-01-15 20:00:00 1.6 0 Calma 18 Sur 0 -- -- 98
2018-01-15 19:00:00 1.9 12 Sur 26 Sur 0 -- -- 97
2018-01-15 18:00:00 2.1 19 Sur 41 Sur 0 -- -- 96
2018-01-15 17:00:00 2.4 31 Sur 45 Sur 0 -- -- 95
2018-01-15 16:00:00 3.2 34 Sur 51 Sur 0 -- -- 91
2018-01-15 15:00:00 4.6 42 Sur 53 Sur 0 -- -- 83
2018-01-15 14:00:00 5.3 37 Sur 45 Sur 0 -- -- 80
2018-01-15 13:00:00 6.5 19 Sur 28 Sur 0 -- -- 74
2018-01-15 12:00:00 6.1 4 Norte 11 Norte 0 -- -- 70
2018-01-15 11:00:00 1.8 7 Norte 9 Norte 0.2 -- -- 93
2018-01-15 10:00:00 -1.2 4 Norte 10 Norte 0 -- -- 100
2018-01-15 09:00:00 -2 3 Norte 8 Nordeste 0 -- -- 100
2018-01-15 08:00:00 -1.6 4 Noroeste 7 Norte 0 -- -- 100
2018-01-15 07:00:00 -1.6 3 Norte 5 Norte 0 -- -- 100
2018-01-15 06:00:00 -0.3 2 Norte 8 Nordeste 0 -- -- 100
2018-01-15 05:00:00 -0.7 4 Nordeste 9 Norte 0 -- -- 100
2018-01-15 04:00:00 0.5 4 Nordeste 9 Nordeste 0 -- -- 98
2018-01-15 03:00:00 0.4 4 Norte 10 Noroeste 0 -- -- 100
2018-01-15 02:00:00 0.4 5 Norte 10 Norte 0 -- -- 100
2018-01-15 01:00:00 1 2 Norte 9 Norte 0 -- -- 100
2018-01-15 00:00:00 1.2 5 Norte 8 Norte 0 -- -- 100
2018-01-14 23:00:00 1.8 2 Norte 5 Nordeste 0 -- -- 100
2018-01-14 22:00:00 1.8 3 Norte 6 Norte 0 -- -- 99
2018-01-14 21:00:00 2.3 5 Norte 6 Norte 0 -- -- 99
2018-01-14 20:00:00 3.4 2 Norte 16 Sur 0 -- -- 96
2018-01-14 19:00:00 3.7 14 Sur 17 Sur 0 -- -- 96
2018-01-14 18:00:00 4.1 14 Sur 31 Sur 0 -- -- 94
2018-01-14 17:00:00 4.4 22 Sur 31 Sur 0 -- -- 92
2018-01-14 16:00:00 5.7 22 Sur 27 Sur 0 -- -- 85
2018-01-14 15:00:00 7.2 14 Sur 20 Sur 0 -- -- 78
2018-01-14 14:00:00 7.1 15 Sur 19 Sur 0 -- -- 81
2018-01-14 13:00:00 6.3 12 Sur 16 Sur 0 -- -- 87
2018-01-14 12:00:00 3.9 2 Sur 4 Sur 0 -- -- 98
2018-01-14 11:00:00 3 2 Norte 5 Nordeste 0 -- -- 99
2018-01-14 10:00:00 1.3 3 Norte 5 Noroeste 0 -- -- 100
2018-01-14 09:00:00 1 2 Norte 6 Norte 0 -- -- 100
2018-01-14 08:00:00 1 5 Norte 5 Norte 0.2 -- -- 100
2018-01-14 07:00:00 1.2 3 Norte 4 Nordeste 0.4 -- -- 100
2018-01-14 06:00:00 1.3 3 Noroeste 6 Norte 0.2 -- -- 100
2018-01-14 05:00:00 1.3 2 Norte 3 Norte 0.4 -- -- 100
2018-01-14 04:00:00 1.3 3 Norte 5 Norte 0 -- -- 100
2018-01-14 03:00:00 1.3 3 Norte 6 Nordeste 0 -- -- 100
2018-01-14 02:00:00 1.3 2 Nordeste 6 Nordeste 0.2 -- -- 99
2018-01-14 01:00:00 1.5 3 Norte 10 Norte 0 -- -- 96
2018-01-14 00:00:00 1.2 4 Norte 9 Norte 0 -- -- 97
2018-01-13 23:00:00 1.4 2 Norte 9 Norte 0 -- -- 96
2018-01-13 22:00:00 2 5 Norte 9 Norte 0.2 -- -- 93
2018-01-13 21:00:00 2.7 3 Norte 9 Nordeste 0.2 -- -- 81
2018-01-13 20:00:00 2.9 4 Norte 8 Nordeste 0 -- -- 74
2018-01-13 19:00:00 3.3 6 Norte 9 Nordeste 0 -- -- 70
2018-01-13 18:00:00 4.4 3 Norte 8 Nordeste 0 -- -- 60
2018-01-13 17:00:00 4.9 5 Norte 13 Sudoeste 0 -- -- 59
2018-01-13 16:00:00 5.4 4 Nordeste 6 Nordeste 0 -- -- 53
2018-01-13 15:00:00 6.3 0 Calma 6 Norte 0 -- -- 50
2018-01-13 14:00:00 5.2 2 Norte 6 Norte 0 -- -- 54
2018-01-13 13:00:00 5.1 3 Norte 9 Nordeste 0 -- -- 55
2018-01-13 12:00:00 2.9 3 Norte 10 Norte 0 -- -- 64
2018-01-13 11:00:00 0.5 3 Nordeste 5 Norte 0 -- -- 75
2018-01-13 10:00:00 -1.6 3 Norte 11 Norte 0 -- -- 86
2018-01-13 09:00:00 -2.9 3 Norte 5 Norte 0 -- -- 87
2018-01-13 08:00:00 -2.8 3 Norte 8 Nordeste 0 -- -- 85
2018-01-13 07:00:00 -3.2 3 Norte 8 Nordeste 0 -- -- 88
2018-01-13 06:00:00 -3.1 5 Norte 9 Norte 0 -- -- 88
2018-01-13 05:00:00 -3 5 Norte 10 Nordeste 0 -- -- 88
2018-01-13 04:00:00 -3.1 4 Norte 7 Nordeste 0 -- -- 88
2018-01-13 03:00:00 -2.2 4 Norte 9 Norte 0 -- -- 85
2018-01-13 02:00:00 -2.2 3 Norte 8 Nordeste 0 -- -- 86
2018-01-13 01:00:00 -2.1 4 Norte 7 Norte 0 -- -- 88
2018-01-13 00:00:00 -1.4 3 Norte 7 Norte 0 -- -- 86
2018-01-12 23:00:00 0.6 3 Norte 6 Norte 0 -- -- 73
2018-01-12 22:00:00 0.3 3 Norte 8 Norte 0 -- -- 76
2018-01-12 21:00:00 0.3 5 Norte 21 Nordeste 0 -- -- 83
2018-01-12 20:00:00 0.2 10 Norte 13 Norte 0 -- -- 85
2018-01-12 19:00:00 1.7 3 Sur 26 Sur 0 -- -- 87
2018-01-12 18:00:00 3.1 21 Sur 36 Sur 0 -- -- 85
2018-01-12 17:00:00 4.1 23 Sur 33 Sur 0 -- -- 79
2018-01-12 16:00:00 4.9 13 Sur 24 Sur 0 -- -- 75
2018-01-12 15:00:00 5.9 15 Sur 30 Sur 0 -- -- 71
2018-01-12 14:00:00 4.1 26 Sur 49 Sur 0 -- -- 78
2018-01-12 13:00:00 2.6 42 Sur 52 Sur 0 -- -- 83
2018-01-12 12:00:00 3.5 21 Sur 30 Sur 0 -- -- 78
2018-01-12 11:00:00 4.1 7 Norte 17 Norte 0 -- -- 61
2018-01-12 10:00:00 0 6 Norte 23 Norte 0 -- -- 75
2018-01-12 09:00:00 -2.9 8 Norte 12 Norte 0 -- -- 93
2018-01-12 08:00:00 -1.8 4 Noroeste 9 Norte 0 -- -- 86
2018-01-12 07:00:00 -1.4 2 Norte 9 Noroeste 0 -- -- 85
2018-01-12 06:00:00 -2.3 4 Norte 8 Norte 0 -- -- 89
2018-01-12 05:00:00 -1.4 4 Norte 6 Norte 0 -- -- 85
2018-01-12 04:00:00 -1.5 4 Norte 5 Norte 0 -- -- 87
2018-01-12 03:00:00 -0.5 4 Norte 9 Nordeste 0 -- -- 85
2018-01-12 02:00:00 1 3 Norte 10 Nordeste 0 -- -- 75
2018-01-12 01:00:00 1 4 Nordeste 10 Nordeste 0 -- -- 76
2018-01-12 00:00:00 0.1 6 Norte 10 Norte 0 -- -- 79
2018-01-11 23:00:00 1.1 5 Norte 13 Norte 0 -- -- 75
2018-01-11 22:00:00 1.3 5 Norte 13 Norte 0 -- -- 72
2018-01-11 21:00:00 2 7 Nordeste 10 Norte 0 -- -- 70
2018-01-11 20:00:00 3.2 5 Norte 13 Norte 0 -- -- 63
2018-01-11 19:00:00 4.2 9 Norte 13 Norte 0 -- -- 58
2018-01-11 18:00:00 6.1 7 Norte 25 Norte 0 -- -- 48
2018-01-11 17:00:00 8.1 17 Norte 40 Norte 0 -- -- 41
2018-01-11 16:00:00 8.9 17 Norte 40 Norte 0 -- -- 39
2018-01-11 15:00:00 10.6 8 Norte 22 Nordeste 0 -- -- 48
2018-01-11 14:00:00 8.7 21 Sur 27 Sur 0 -- -- 70
2018-01-11 13:00:00 7.6 18 Sur 26 Sur 0 -- -- 74
2018-01-11 12:00:00 5.5 3 Sur 12 Norte 0 -- -- 94
2018-01-11 11:00:00 1.2 4 Norte 7 Norte 0 -- -- 100
2018-01-11 10:00:00 0 4 Norte 12 Nordeste 0 -- -- 100
2018-01-11 09:00:00 0.1 5 Norte 9 Norte 0 -- -- 100
2018-01-11 08:00:00 0.1 4 Norte 6 Norte 0.2 -- -- 100
2018-01-11 07:00:00 0 2 Norte 8 Norte 0 -- -- 100
2018-01-11 06:00:00 0.3 3 Nordeste 5 Norte 0 -- -- 100
2018-01-11 05:00:00 0.6 2 Noroeste 9 Norte 0 -- -- 100
2018-01-11 04:00:00 0.8 6 Norte 9 Nordeste 0 -- -- 100
2018-01-11 03:00:00 1.7 3 Norte 5 Norte 0 -- -- 100
2018-01-11 02:00:00 1.4 4 Norte 6 Norte 0 -- -- 100
2018-01-11 01:00:00 1.8 2 Nordeste 5 Sur 0.4 -- -- 100
2018-01-11 00:00:00 1.2 3 Norte 6 Norte 0 -- -- 100
2018-01-10 23:00:00 1.5 3 Nordeste 18 Sur 0 -- -- 100
2018-01-10 22:00:00 1.7 2 Sur 11 Sur 0 -- -- 100
2018-01-10 21:00:00 1.5 3 Sur 23 Sur 0 -- -- 100
2018-01-10 20:00:00 1.7 13 Sur 24 Sur 0 -- -- 99
2018-01-10 19:00:00 1.8 18 Sur 31 Sur 0 -- -- 98
2018-01-10 18:00:00 2.7 13 Sur 25 Sur 0 -- -- 93
2018-01-10 17:00:00 4.6 13 Sur 33 Sur 0 -- -- 82
2018-01-10 16:00:00 7 23 Sur 45 Sur 0 -- -- 71
2018-01-10 15:00:00 8.4 17 Sur 22 Sur 0 -- -- 62
2018-01-10 14:00:00 8.9 13 Sur 17 Sur 0 -- -- 59
2018-01-10 13:00:00 8.5 4 Nordeste 6 Nordeste 0 -- -- 57
2018-01-10 12:00:00 6.7 3 Nordeste 7 Este 0 -- -- 63
2018-01-10 11:00:00 2.5 5 Nordeste 9 Nordeste 0 -- -- 85
2018-01-10 10:00:00 -1.4 4 Norte 10 Norte 0 -- -- 99
2018-01-10 09:00:00 -1.3 5 Norte 15 Nordeste 0 -- -- 99
2018-01-10 08:00:00 -1.5 7 Norte 14 Norte 0 -- -- 99
2018-01-10 07:00:00 -0.8 5 Norte 10 Norte 0 -- -- 100
2018-01-10 06:00:00 -1.4 5 Norte 13 Norte 0 -- -- 100
2018-01-10 05:00:00 -0.8 3 Nordeste 5 Norte 0 -- -- 100
2018-01-10 04:00:00 -1 5 Norte 8 Norte 0 -- -- 100
2018-01-10 03:00:00 -0.3 0 Calma 5 Nordeste 0 -- -- 100
2018-01-10 02:00:00 -0.8 3 Norte 4 Norte 0 -- -- 99
2018-01-10 01:00:00 -0.4 2 Sur 6 Sudeste 0 -- -- 100
2018-01-10 00:00:00 -0.3 2 Norte 4 Noroeste 0 -- -- 98
2018-01-09 23:00:00 0.2 2 Norte 6 Norte 0 -- -- 99
2018-01-09 22:00:00 0.4 3 Norte 5 Norte 0 -- -- 98
2018-01-09 21:00:00 1 3 Norte 7 Norte 0 -- -- 96
2018-01-09 20:00:00 1.4 3 Norte 5 Norte 0 -- -- 92
2018-01-09 19:00:00 1.7 4 Norte 8 Norte 0 -- -- 91
2018-01-09 18:00:00 2.9 2 Norte 8 Nordeste 0 -- -- 84
2018-01-09 17:00:00 3.8 5 Nordeste 14 Nordeste 0 -- -- 79
2018-01-09 16:00:00 4.9 9 Nordeste 13 Nordeste 0 -- -- 75
2018-01-09 15:00:00 5.6 4 Nordeste 14 Nordeste 0 -- -- 72
2018-01-09 14:00:00 6.8 11 Nordeste 17 Norte 0 -- -- 68
2018-01-09 13:00:00 6.3 12 Norte 18 Nordeste 0 -- -- 67
2018-01-09 12:00:00 5.5 7 Norte 12 Norte 0 -- -- 70
2018-01-09 11:00:00 3.1 4 Nordeste 16 Noroeste 0 -- -- 84
2018-01-09 10:00:00 1.5 9 Norte 19 Oeste 0 -- -- 91
2018-01-09 09:00:00 0.8 10 Norte 19 Noroeste 0 -- -- 94
2018-01-09 08:00:00 0.7 9 Noroeste 15 Noroeste 0 -- -- 96
2018-01-09 07:00:00 0.9 5 Norte 18 Norte 0 -- -- 97
2018-01-09 06:00:00 1.1 6 Noroeste 15 Noroeste 0 -- -- 97
2018-01-09 05:00:00 1.2 5 Noroeste 14 Noroeste 0 -- -- 98
2018-01-09 04:00:00 1.1 3 Nordeste 8 Nordeste 0 -- -- 100
2018-01-09 03:00:00 0.7 5 Norte 8 Norte 0 -- -- 100
2018-01-09 02:00:00 0.9 3 Norte 8 Nordeste 0 -- -- 100
2018-01-09 01:00:00 0.2 4 Noroeste 9 Noroeste 0 -- -- 100
2018-01-09 00:00:00 0.7 3 Norte 5 Nordeste 0 -- -- 100
2018-01-08 23:00:00 0.6 3 Nordeste 8 Norte 0 -- -- 100
2018-01-08 22:00:00 0.8 3 Norte 8 Norte 0 -- -- 100
2018-01-08 21:00:00 1.3 4 Nordeste 7 Este 0 -- -- 98
2018-01-08 20:00:00 2.9 2 Sur 15 Sur 0 -- -- 98
2018-01-08 19:00:00 3.3 9 Sur 22 Sur 0 -- -- 97
2018-01-08 18:00:00 3.4 12 Sur 17 Sur 0 -- -- 95
2018-01-08 17:00:00 4.4 6 Sur 10 Sur 0 -- -- 87
2018-01-08 16:00:00 6.9 8 Nordeste 14 Nordeste 0 -- -- 69
2018-01-08 15:00:00 7.4 10 Nordeste 18 Nordeste 0 -- -- 70
2018-01-08 14:00:00 5.4 8 Nordeste 15 Nordeste 0 -- -- 82
2018-01-08 13:00:00 4.2 12 Nordeste 17 Nordeste 0 -- -- 92
2018-01-08 12:00:00 2.9 3 Nordeste 9 Norte 0 -- -- 100
2018-01-08 11:00:00 1.4 4 Norte 8 Nordeste 0 -- -- 100
2018-01-08 10:00:00 0 4 Norte 7 Nordeste 0 -- -- 100
2018-01-08 09:00:00 0.3 0 Calma 6 Nordeste 0 -- -- 100
2018-01-08 08:00:00 0 3 Nordeste 12 Norte 0 -- -- 100
2018-01-08 07:00:00 -0.2 6 Norte 12 Nordeste 0 -- -- 100
2018-01-08 06:00:00 0.5 6 Norte 12 Norte 0 -- -- 100
2018-01-08 05:00:00 0.9 6 Nordeste 9 Nordeste 0 -- -- 100
2018-01-08 04:00:00 0.6 5 Norte 9 Norte 0 -- -- 100
2018-01-08 03:00:00 0.5 5 Norte 7 Norte 0.2 -- -- 100
2018-01-08 02:00:00 0.5 5 Norte 9 Norte 0 -- -- 100
2018-01-08 01:00:00 0.8 4 Norte 5 Norte 0 -- -- 100
2018-01-08 00:00:00 1.7 3 Norte 6 Norte 0 -- -- 100
2018-01-07 23:00:00 2.1 3 Noroeste 13 Norte 0 -- -- 100
2018-01-07 22:00:00 2.4 5 Norte 17 Norte 0 -- -- 100
2018-01-07 21:00:00 2.8 8 Nordeste 15 Nordeste 0 -- -- 100
2018-01-07 20:00:00 2.4 12 Nordeste 17 Nordeste 1.4 -- -- 100
2018-01-07 19:00:00 2.5 8 Norte 19 Nordeste 0.4 -- -- 100
2018-01-07 18:00:00 2.8 12 Norte 26 Norte 1.4 -- -- 100
2018-01-07 17:00:00 3.5 14 Norte 21 Norte 2 -- -- 100
2018-01-07 16:00:00 3.7 4 Norte 30 Norte 0.2 -- -- 100
2018-01-07 15:00:00 4.2 12 Nordeste 18 Nordeste 3.2 -- -- 100
2018-01-07 14:00:00 4.6 4 Norte 18 Nordeste 3.2 -- -- 100
2018-01-07 13:00:00 5.1 2 Oeste 15 Norte 3.2 -- -- 99
2018-01-07 12:00:00 4.9 9 Noroeste 35 Sur 6.4 -- -- 98
2018-01-07 11:00:00 5.5 30 Sur 57 Sur 3.6 -- -- 94
2018-01-07 10:00:00 7 3 Oeste 17 Sudoeste 1.8 -- -- 91
2018-01-07 09:00:00 8.3 8 Sudoeste 45 Sur 0.4 -- -- 82
2018-01-07 08:00:00 8.5 25 Sur 47 Sur 0.2 -- -- 81
2018-01-07 07:00:00 7.9 26 Sur 52 Sudoeste 1.2 -- -- 87
2018-01-07 06:00:00 7.7 22 Sur 41 Sur 0 -- -- 88
2018-01-07 05:00:00 7.4 14 Sur 63 Sur 4.2 -- -- 94
2018-01-07 04:00:00 7.4 5 Oeste 22 Norte 0.6 -- -- 94
2018-01-07 03:00:00 7.5 5 Sudeste 17 Norte 2.4 -- -- 94
2018-01-07 02:00:00 8.3 5 Norte 22 Norte 0.2 -- -- 90
2018-01-07 01:00:00 8.5 9 Sudoeste 27 Sudeste 0.6 -- -- 86
2018-01-07 00:00:00 7.8 29 Sur 67 Sur 5.8 -- -- 89
2018-01-06 23:00:00 12 10 Nordeste 25 Norte 0 -- -- 55
2018-01-06 22:00:00 10.5 6 Norte 15 Nordeste 0 -- -- 69
2018-01-06 21:00:00 6.2 9 Norte 15 Nordeste 0 -- -- 88
2018-01-06 20:00:00 6 4 Sudoeste 9 Nordeste 0 -- -- 89
2018-01-06 19:00:00 6.5 3 Nordeste 10 Norte 0 -- -- 85
2018-01-06 18:00:00 7 2 Norte 6 Noroeste 0 -- -- 82
2018-01-06 17:00:00 7.1 0 Calma 12 Norte 0 -- -- 82
2018-01-06 16:00:00 6.9 2 Norte 9 Nordeste 0 -- -- 83
2018-01-06 15:00:00 7.2 2 Norte 7 Norte 0 -- -- 82
2018-01-06 14:00:00 7 2 Norte 6 Norte 0 -- -- 81
2018-01-06 13:00:00 6.4 3 Norte 6 Norte 0 -- -- 83
2018-01-06 12:00:00 6 3 Norte 6 Nordeste 0 -- -- 88
2018-01-06 11:00:00 3 3 Noroeste 5 Noroeste 0 -- -- 100
2018-01-06 10:00:00 1.7 3 Norte 7 Norte 0 -- -- 100
2018-01-06 09:00:00 0.6 5 Norte 9 Norte 0 -- -- 100
2018-01-06 08:00:00 0.3 5 Norte 8 Norte 0 -- -- 100
2018-01-06 07:00:00 1 5 Norte 9 Norte 0 -- -- 100
2018-01-06 06:00:00 1.3 5 Norte 9 Norte 0 -- -- 100
2018-01-06 05:00:00 1.1 4 Norte 6 Norte 0 -- -- 100
2018-01-06 04:00:00 1.5 5 Norte 8 Norte 0 -- -- 100
2018-01-06 03:00:00 1.7 6 Norte 8 Norte 0 -- -- 99
2018-01-06 02:00:00 3.3 4 Norte 9 Noroeste 0 -- -- 94
2018-01-06 01:00:00 4.2 5 Norte 9 Norte 0 -- -- 95
2018-01-06 00:00:00 4.9 6 Norte 9 Noroeste 0 -- -- 91
2018-01-05 23:00:00 5.4 3 Noroeste 13 Norte 0 -- -- 89
2018-01-05 22:00:00 6.3 3 Norte 6 Norte 0 -- -- 86
2018-01-05 21:00:00 6 4 Nordeste 9 Norte 0 -- -- 87
2018-01-05 20:00:00 5.7 8 Norte 10 Nordeste 0 -- -- 88
2018-01-05 19:00:00 7.8 6 Norte 8 Norte 0 -- -- 79
2018-01-05 18:00:00 10.2 2 Este 14 Sudoeste 0 -- -- 68
2018-01-05 17:00:00 11.1 5 Sudoeste 21 Sudoeste 0 -- -- 64
2018-01-05 16:00:00 12.3 14 Sur 23 Sur 0 -- -- 61
2018-01-05 15:00:00 13 16 Sur 31 Sur 0 -- -- 59
2018-01-05 14:00:00 14.9 18 Sur 29 Sur 0 -- -- 55
2018-01-05 13:00:00 11.7 0 Calma 11 Norte 0 -- -- 73
2018-01-05 12:00:00 6.9 4 Nordeste 10 Norte 0 -- -- 93
2018-01-05 11:00:00 1.9 6 Norte 10 Oeste 0 -- -- 100
2018-01-05 10:00:00 1.9 3 Noroeste 10 Norte 0 -- -- 100
2018-01-05 09:00:00 1.1 4 Norte 10 Norte 0 -- -- 100
2018-01-05 08:00:00 0.6 4 Norte 10 Nordeste 0 -- -- 100
2018-01-05 07:00:00 1.9 7 Norte 9 Norte 0 -- -- 100
2018-01-05 06:00:00 2.5 5 Norte 10 Nordeste 0 -- -- 100
2018-01-05 05:00:00 4.2 5 Noroeste 11 Norte 0 -- -- 100
2018-01-05 04:00:00 3.1 5 Norte 11 Norte 0 -- -- 100
2018-01-05 03:00:00 2.4 8 Norte 11 Norte 0 -- -- 100
2018-01-05 02:00:00 3.6 5 Norte 8 Norte 0 -- -- 100
2018-01-05 01:00:00 4.1 3 Norte 7 Norte 0 -- -- 100
2018-01-05 00:00:00 4.9 5 Norte 10 Norte 0 -- -- 98
2018-01-04 23:00:00 6.4 5 Norte 11 Noroeste 0 -- -- 92
2018-01-04 22:00:00 7.5 7 Norte 12 Norte 0 -- -- 91
2018-01-04 21:00:00 10.2 5 Sur 18 Sur 0 -- -- 79
2018-01-04 20:00:00 10.6 17 Sur 27 Sur 0 -- -- 79
2018-01-04 19:00:00 12.2 14 Sur 23 Sur 0 -- -- 73
2018-01-04 18:00:00 14.6 5 Oeste 22 Oeste 0 -- -- 64
2018-01-04 17:00:00 15.3 13 Sudoeste 28 Sudoeste 0 -- -- 62
2018-01-04 16:00:00 16.6 9 Sur 16 Sur 0 -- -- 58
2018-01-04 15:00:00 16.3 11 Sur 25 Sur 0 -- -- 64
2018-01-04 14:00:00 15.9 18 Sur 33 Sur 0 -- -- 69
2018-01-04 13:00:00 13.8 19 Sur 35 Sur 0 -- -- 78
2018-01-04 12:00:00 10.9 6 Sur 15 Sur 0 -- -- 92
2018-01-04 11:00:00 6.9 4 Sur 11 Sur 0 -- -- 100
2018-01-04 10:00:00 2.6 3 Nordeste 6 Nordeste 0.2 -- -- 100
2018-01-04 09:00:00 3 0 Calma 8 Oeste 0 -- -- 100
2018-01-04 08:00:00 3 6 Sudoeste 12 Sur 0 -- -- 100
2018-01-04 07:00:00 3.4 4 Norte 7 Nordeste 0 -- -- 100
2018-01-04 06:00:00 2.6 6 Nordeste 10 Norte 0 -- -- 100
2018-01-04 05:00:00 3.7 3 Sudeste 9 Noroeste 0 -- -- 100
2018-01-04 04:00:00 3.9 4 Norte 7 Norte 0 -- -- 100
2018-01-04 03:00:00 4.4 2 Norte 9 Norte 0 -- -- 100
2018-01-04 02:00:00 3.7 6 Norte 11 Norte 0 -- -- 100
2018-01-04 01:00:00 3.2 7 Norte 14 Nordeste 0 -- -- 100
2018-01-04 00:00:00 3.4 8 Norte 10 Norte 0 -- -- 100
2018-01-03 23:00:00 4.3 3 Norte 12 Norte 0 -- -- 100
2018-01-03 22:00:00 4.8 6 Norte 11 Norte 0 -- -- 99
2018-01-03 21:00:00 4.8 7 Norte 13 Nordeste 0 -- -- 100
2018-01-03 20:00:00 6.2 8 Norte 15 Norte 0 -- -- 100
2018-01-03 19:00:00 7.2 4 Norte 12 Norte 0 -- -- 96
2018-01-03 18:00:00 7.9 6 Nordeste 9 Nordeste 0 -- -- 94
2018-01-03 17:00:00 9.8 4 Norte 5 Noroeste 0 -- -- 84
2018-01-03 16:00:00 12.3 2 Norte 12 Sur 0 -- -- 76
2018-01-03 15:00:00 11 9 Sur 26 Sur 0 -- -- 91
2018-01-03 14:00:00 8.2 15 Sur 24 Sur 0 -- -- 100
2018-01-03 13:00:00 4.8 2 Sur 6 Norte 0 -- -- 100
2018-01-03 12:00:00 2.5 5 Norte 8 Norte 0 -- -- 100
2018-01-03 11:00:00 1.9 2 Norte 6 Oeste 0 -- -- 100
2018-01-03 10:00:00 0.7 3 Norte 9 Nordeste 0 -- -- 100
2018-01-03 09:00:00 0.5 4 Norte 9 Norte 0 -- -- 100
2018-01-03 08:00:00 0.4 5 Norte 9 Norte 0 -- -- 100
2018-01-03 07:00:00 -0.1 5 Norte 8 Norte 0 -- -- 100
2018-01-03 06:00:00 0 0 Calma 8 Norte 0.2 -- -- 100
2018-01-03 05:00:00 0.4 5 Norte 8 Norte 0 -- -- 100
2018-01-03 04:00:00 0.9 3 Norte 8 Nordeste 0 -- -- 100
2018-01-03 03:00:00 1.3 2 Nordeste 6 Norte 0 -- -- 99
2018-01-03 02:00:00 2.3 2 Norte 4 Norte 0 -- -- 100
2018-01-03 01:00:00 2.4 3 Norte 8 Nordeste 0 -- -- 100
2018-01-03 00:00:00 2.7 5 Norte 7 Norte 0 -- -- 99
2018-01-02 23:00:00 3.5 3 Nordeste 8 Nordeste 0 -- -- 98
2018-01-02 22:00:00 3.3 8 Norte 9 Norte 0 -- -- 96
2018-01-02 21:00:00 4.3 7 Norte 10 Nordeste 0 -- -- 95
2018-01-02 20:00:00 5.3 5 Norte 12 Norte 0 -- -- 93
2018-01-02 19:00:00 5.5 8 Nordeste 13 Nordeste 0 -- -- 92
2018-01-02 18:00:00 7 8 Norte 10 Norte 0 -- -- 86
2018-01-02 17:00:00 10.3 3 Sudoeste 19 Sur 0 -- -- 70
2018-01-02 16:00:00 12.5 15 Sur 35 Sur 0 -- -- 63
2018-01-02 15:00:00 13.1 19 Sur 32 Sur 0 -- -- 61
2018-01-02 14:00:00 12.4 13 Sur 26 Sur 0 -- -- 62
2018-01-02 13:00:00 10.1 3 Nordeste 8 Sur 0 -- -- 86
2018-01-02 12:00:00 6.1 2 Sudeste 9 Norte 0 -- -- 96
2018-01-02 11:00:00 1.2 4 Norte 5 Nordeste 0 -- -- 100
2018-01-02 10:00:00 -0.3 0 Calma -- -- 0 -- -- 100
2018-01-02 09:00:00 -1.1 0 Calma -- -- 0 -- -- 100
2018-01-02 08:00:00 -1.7 0 Calma -- -- 0 -- -- 100
2018-01-02 07:00:00 -1.1 0 Calma -- -- 0 -- -- 100
2018-01-02 06:00:00 -1.3 0 Calma 4 Norte 0 -- -- 100
2018-01-02 05:00:00 -0.8 4 Norte 13 Norte 0 -- -- 100
2018-01-02 04:00:00 -0.9 8 Norte 12 Norte 0 -- -- 100
2018-01-02 03:00:00 -0.2 4 Norte 12 Norte 0 -- -- 100
2018-01-02 02:00:00 0.2 9 Norte 13 Norte 0 -- -- 100
2018-01-02 01:00:00 0.7 2 Nordeste 9 Norte 0.2 -- -- 100
2018-01-02 00:00:00 1.3 5 Norte 10 Sudoeste 0 -- -- 100
2018-01-01 23:00:00 2.5 0 Calma 10 Norte 0 -- -- 100
2018-01-01 22:00:00 2.9 7 Norte 10 Nordeste 0 -- -- 97
2018-01-01 21:00:00 4.4 3 Sur 14 Nordeste 0 -- -- 97
2018-01-01 20:00:00 5.4 3 Nordeste 22 Sudeste 0.4 -- -- 92
2018-01-01 19:00:00 6 5 Este 23 Sudeste 1.4 -- -- 85
2018-01-01 18:00:00 7.8 8 Sur 27 Sudoeste 0 -- -- 67
2018-01-01 17:00:00 8.6 9 Este 35 Oeste 0 -- -- 56
2018-01-01 16:00:00 9 8 Sudeste 34 Sur 0 -- -- 53
2018-01-01 15:00:00 10.6 16 Sur 37 Sudeste 0 -- -- 47
2018-01-01 14:00:00 10.3 15 Sudeste 31 Sudeste 0 -- -- 49
2018-01-01 13:00:00 10.5 13 Sur 33 Sur 0 -- -- 46
2018-01-01 12:00:00 10.3 18 Sudeste 31 Sudeste 0 -- -- 49
2018-01-01 11:00:00 5.4 3 Norte 27 Sur 0 -- -- 71
2018-01-01 10:00:00 1.8 14 Sur 22 Sudoeste 0 -- -- 85
2018-01-01 09:00:00 0.5 2 Noroeste 17 Sudoeste 0 -- -- 81
2018-01-01 08:00:00 0 7 Norte 9 Norte 0 -- -- 81
2018-01-01 07:00:00 1.4 4 Norte 12 Nordeste 0 -- -- 75
2018-01-01 06:00:00 3.3 9 Norte 18 Este 0 -- -- 67
2018-01-01 05:00:00 3.7 7 Nordeste 15 Nordeste 0 -- -- 59
2018-01-01 04:00:00 6.1 5 Norte 31 Norte 0 -- -- 47
2018-01-01 03:00:00 7.3 20 Norte 42 Nordeste 0 -- -- 45
2018-01-01 02:00:00 6.3 7 Norte 26 Oeste 0 -- -- 75
2018-01-01 01:00:00 6 8 Norte 18 Norte 0 -- -- 77
2018-01-01 00:00:00 6 8 Norte 15 Norte 0 -- -- 83
2017-12-31 23:00:00 5.1 8 Norte 12 Norte 0 -- -- 87
2017-12-31 22:00:00 4.9 7 Nordeste 19 Norte 0 -- -- 87
2017-12-31 21:00:00 5.4 6 Nordeste 21 Sur 0 -- -- 83
2017-12-31 20:00:00 4.6 4 Nordeste 13 Nordeste 0 -- -- 91
2017-12-31 19:00:00 5.1 4 Norte 13 Sudoeste 0 -- -- 89
2017-12-31 18:00:00 6 7 Nordeste 16 Sur 0 -- -- 89
2017-12-31 17:00:00 7.3 12 Sur 29 Sur 0 -- -- 82
2017-12-31 16:00:00 7.9 15 Sur 28 Sur 0 -- -- 74
2017-12-31 15:00:00 8.3 6 Sudeste 19 Sur 0 -- -- 67
2017-12-31 14:00:00 8.5 4 Norte 6 Norte 0 -- -- 68
2017-12-31 13:00:00 4.4 4 Norte 8 Norte 0 -- -- 90
2017-12-31 12:00:00 1.8 4 Norte 9 Norte 0.2 -- -- 98
2017-12-31 11:00:00 0.6 5 Norte 9 Norte 0 -- -- 100
2017-12-31 10:00:00 -0.3 5 Norte 8 Norte 0 -- -- 100
2017-12-31 09:00:00 -0.7 6 Norte 9 Norte 0 -- -- 100
2017-12-31 08:00:00 -0.6 5 Norte 9 Nordeste 0 -- -- 100
2017-12-31 07:00:00 -0.7 4 Norte 13 Norte 0 -- -- 100
2017-12-31 06:00:00 -1.1 7 Norte 12 Norte 0 -- -- 100
2017-12-31 05:00:00 -0.6 6 Norte 10 Norte 0 -- -- 100
2017-12-31 04:00:00 -0.2 5 Norte 10 Norte 0 -- -- 100
2017-12-31 03:00:00 0.6 4 Norte 6 Norte 0 -- -- 98
2017-12-31 02:00:00 1.5 4 Norte 8 Norte 0 -- -- 100
2017-12-31 01:00:00 1.3 7 Norte 11 Norte 0 -- -- 100